Time;durP1;ratioP1;P1;durP2;ratioP2;P2;SDS_P1;SDS_P2;PMS_P1;PMS_P2;Temp;Humidity;BMP_temperature;BMP_pressure;BME280_temperature;BME280_humidity;BME280_pressure;Samples;Min_cycle;Max_cycle;Signal;HPM_P1;HPM_P2
2024/04/06 05:02:28;;;;;;;9.03;4.10;;;;;;;;;;5089556;22;20563;-76
2024/04/06 05:04:55;;;;;;;8.13;4.50;;;;;;;;;;5049048;28;20412;-76
2024/04/06 05:07:22;;;;;;;7.53;4.70;;;;;;;;;;5051411;28;20407;-76
2024/04/06 05:09:48;;;;;;;9.80;4.57;;;;;;;;;;5033487;28;20413;-76
2024/04/06 05:12:14;;;;;;;6.63;4.13;;;;;;;;;;5048914;28;20436;-76
2024/04/06 05:14:40;;;;;;;6.47;4.30;;;;;;;;;;5066252;28;20494;-76
2024/04/06 05:17:06;;;;;;;6.37;3.80;;;;;;;;;;5073487;28;20909;-77
2024/04/06 05:19:32;;;;;;;10.23;3.83;;;;;;;;;;5053130;28;20427;-77
2024/04/06 05:21:58;;;;;;;8.07;4.27;;;;;;;;;;5053013;28;20585;-79
2024/04/06 05:24:24;;;;;;;9.30;4.53;;;;;;;;;;5052729;28;20411;-77
2024/04/06 05:26:51;;;;;;;6.70;4.20;;;;;;;;;;5052976;28;20423;-76
2024/04/06 05:29:18;;;;;;;6.83;4.30;;;;;;;;;;5053099;28;20791;-77
2024/04/06 05:31:45;;;;;;;7.77;4.33;;;;;;;;;;5032725;28;20437;-77
2024/04/06 05:34:11;;;;;;;11.10;4.40;;;;;;;;;;5032906;28;20409;-76
2024/04/06 05:36:37;;;;;;;6.43;3.87;;;;;;;;;;5032135;28;20452;-77
2024/04/06 05:39:04;;;;;;;6.83;3.80;;;;;;;;;;5032630;28;20587;-77
2024/04/06 05:41:30;;;;;;;4.63;3.27;;;;;;;;;;5031174;28;20441;-77
2024/04/06 05:43:56;;;;;;;7.43;3.80;;;;;;;;;;5032692;28;20413;-77
2024/04/06 05:46:22;;;;;;;8.50;4.20;;;;;;;;;;5032500;28;20401;-76
2024/04/06 05:48:48;;;;;;;5.70;4.10;;;;;;;;;;5033589;28;20409;-77
2024/04/06 05:51:14;;;;;;;6.20;3.57;;;;;;;;;;5032756;28;20429;-76
2024/04/06 05:53:41;;;;;;;10.93;3.70;;;;;;;;;;5032862;28;20900;-77
2024/04/06 05:56:08;;;;;;;6.60;4.30;;;;;;;;;;5032964;28;20409;-77
2024/04/06 05:58:34;;;;;;;6.70;4.07;;;;;;;;;;5033405;28;20511;-77
2024/04/06 06:01:00;;;;;;;8.93;4.10;;;;;;;;;;5032937;28;20823;-77
2024/04/06 06:03:26;;;;;;;10.80;4.40;;;;;;;;;;5032994;28;20431;-77
2024/04/06 06:05:52;;;;;;;10.50;4.97;;;;;;;;;;5032874;28;20931;-77
2024/04/06 06:08:18;;;;;;;10.07;4.33;;;;;;;;;;5073811;28;20411;-77
2024/04/06 06:10:44;;;;;;;5.10;3.30;;;;;;;;;;5072554;28;20493;-77
2024/04/06 06:13:10;;;;;;;6.23;3.50;;;;;;;;;;5072939;28;20431;-77
2024/04/06 06:15:36;;;;;;;5.80;3.30;;;;;;;;;;5071198;28;20790;-77
2024/04/06 06:18:02;;;;;;;5.00;3.53;;;;;;;;;;5073540;28;20996;-78
2024/04/06 06:20:28;;;;;;;7.40;3.80;;;;;;;;;;5076258;28;20767;-78
2024/04/06 06:22:54;;;;;;;8.47;3.50;;;;;;;;;;5076522;28;20403;-78
2024/04/06 06:25:20;;;;;;;8.60;4.23;;;;;;;;;;5069795;28;20487;-77
2024/04/06 06:27:46;;;;;;;7.83;4.63;;;;;;;;;;5054179;28;20767;-77
2024/04/06 06:30:12;;;;;;;8.47;4.70;;;;;;;;;;5056250;28;20424;-77
2024/04/06 06:32:38;;;;;;;8.70;4.10;;;;;;;;;;5056069;28;20412;-77
2024/04/06 06:35:04;;;;;;;6.33;4.00;;;;;;;;;;5055801;28;20443;-76
2024/04/06 06:37:29;;;;;;;5.80;3.70;;;;;;;;;;5055988;28;20475;-78
2024/04/06 06:39:55;;;;;;;4.37;3.60;;;;;;;;;;5056034;28;20862;-77
2024/04/06 06:42:21;;;;;;;11.37;3.90;;;;;;;;;;5055550;28;20476;-78
2024/04/06 06:44:47;;;;;;;8.00;4.10;;;;;;;;;;5055252;28;20632;-78
2024/04/06 06:47:13;;;;;;;8.93;4.20;;;;;;;;;;5059031;28;20473;-79
2024/04/06 06:49:39;;;;;;;7.07;4.40;;;;;;;;;;5059996;28;20452;-78
2024/04/06 06:52:06;;;;;;;10.67;4.10;;;;;;;;;;5060162;28;20973;-78
2024/04/06 06:54:32;;;;;;;8.67;5.43;;;;;;;;;;5059047;28;20420;-78
2024/04/06 06:56:58;;;;;;;5.57;4.00;;;;;;;;;;5057508;28;20463;-77
2024/04/06 06:59:24;;;;;;;9.40;4.90;;;;;;;;;;5058925;28;20448;-78
2024/04/06 07:01:50;;;;;;;8.80;4.93;;;;;;;;;;5058482;28;20448;-77
2024/04/06 07:04:16;;;;;;;7.90;4.00;;;;;;;;;;5058691;28;20846;-78
2024/04/06 07:06:43;;;;;;;8.33;4.53;;;;;;;;;;5051231;28;20454;-77
2024/04/06 07:09:09;;;;;;;8.07;4.43;;;;;;;;;;5059788;28;20442;-78
2024/04/06 07:11:35;;;;;;;10.47;4.17;;;;;;;;;;5059077;28;20440;-78
2024/04/06 07:14:01;;;;;;;7.10;3.57;;;;;;;;;;5061162;28;21003;-77
2024/04/06 07:16:28;;;;;;;7.80;3.80;;;;;;;;;;5059793;28;20420;-77
2024/04/06 07:18:54;;;;;;;7.70;3.80;;;;;;;;;;5072741;28;20416;-75
2024/04/06 07:21:20;;;;;;;9.60;3.53;;;;;;;;;;5065352;28;20436;-76
2024/04/06 07:23:46;;;;;;;13.47;4.43;;;;;;;;;;5060987;28;20969;-76
2024/04/06 07:26:12;;;;;;;7.50;3.73;;;;;;;;;;5061979;28;20449;-78
2024/04/06 07:28:38;;;;;;;8.20;3.87;;;;;;;;;;5057328;28;20427;-77
2024/04/06 07:31:05;;;;;;;8.27;3.87;;;;;;;;;;5057233;28;21002;-78
2024/04/06 07:33:31;;;;;;;7.13;3.60;;;;;;;;;;5056849;28;20416;-78
2024/04/06 07:35:57;;;;;;;5.63;3.20;;;;;;;;;;5060773;28;20434;-77
2024/04/06 07:38:25;;;;;;;10.30;3.23;;;;;;;;;;5065582;28;20483;-76
2024/04/06 07:41:02;;;;;;;9.30;3.40;;;;;;;;;;5068552;28;20470;-78
2024/04/06 07:43:28;;;;;;;9.43;3.30;;;;;;;;;;5066405;28;20426;-78
2024/04/06 07:45:55;;;;;;;3.73;2.77;;;;;;;;;;5062841;28;20425;-80
2024/04/06 07:48:22;;;;;;;7.60;2.93;;;;;;;;;;5061111;28;20456;-78
2024/04/06 07:50:48;;;;;;;5.77;2.70;;;;;;;;;;5054995;28;20481;-77
2024/04/06 07:53:14;;;;;;;6.57;3.70;;;;;;;;;;5053891;28;20436;-78
2024/04/06 07:55:40;;;;;;;11.37;3.80;;;;;;;;;;5056813;28;20499;-78
2024/04/06 07:58:06;;;;;;;6.37;3.43;;;;;;;;;;5052964;28;20984;-78
2024/04/06 08:00:33;;;;;;;6.57;3.30;;;;;;;;;;5052721;28;20455;-78
2024/04/06 08:02:59;;;;;;;5.40;2.90;;;;;;;;;;5045588;28;20428;-78
2024/04/06 08:05:25;;;;;;;8.93;3.07;;;;;;;;;;5044940;28;20421;-78
2024/04/06 08:07:50;;;;;;;4.33;2.93;;;;;;;;;;5056184;28;20430;-78
2024/04/06 08:10:17;;;;;;;4.60;2.77;;;;;;;;;;5056247;28;20518;-78
2024/04/06 08:12:44;;;;;;;6.13;2.60;;;;;;;;;;5057554;28;20435;-77
2024/04/06 08:15:13;;;;;;;8.03;2.73;;;;;;;;;;5058236;28;20524;-77
2024/04/06 08:17:40;;;;;;;7.83;3.13;;;;;;;;;;5058589;28;20590;-79
2024/04/06 08:20:06;;;;;;;3.67;2.67;;;;;;;;;;5058012;28;20847;-78
2024/04/06 08:22:32;;;;;;;5.40;2.13;;;;;;;;;;5058113;28;20861;-78
2024/04/06 08:24:58;;;;;;;7.87;2.43;;;;;;;;;;5058307;28;20430;-78
2024/04/06 08:27:24;;;;;;;3.80;2.70;;;;;;;;;;5058466;28;20420;-78
2024/04/06 08:29:50;;;;;;;4.43;3.43;;;;;;;;;;5058071;28;20435;-77
2024/04/06 08:32:17;;;;;;;5.43;2.50;;;;;;;;;;5058498;28;20443;-78
2024/04/06 08:34:43;;;;;;;6.53;2.47;;;;;;;;;;5055680;28;20499;-78
2024/04/06 08:37:09;;;;;;;4.50;2.83;;;;;;;;;;5039619;28;20522;-78
2024/04/06 08:39:35;;;;;;;8.90;3.40;;;;;;;;;;5044536;28;20823;-79
2024/04/06 08:42:02;;;;;;;5.50;2.80;;;;;;;;;;5056825;28;20495;-78
2024/04/06 08:44:43;;;;;;;5.30;2.43;;;;;;;;;;5056694;28;20420;-77
2024/04/06 08:47:12;;;;;;;3.93;2.60;;;;;;;;;;5058279;28;20424;-79
2024/04/06 08:49:38;;;;;;;10.40;3.40;;;;;;;;;;5059820;28;20473;-78
2024/04/06 08:52:05;;;;;;;4.23;2.23;;;;;;;;;;5057635;28;20432;-78
2024/04/06 08:54:31;;;;;;;4.43;2.83;;;;;;;;;;5057897;28;20821;-80
2024/04/06 08:56:59;;;;;;;6.17;2.63;;;;;;;;;;5056403;28;20462;-76
2024/04/06 08:59:25;;;;;;;7.63;2.60;;;;;;;;;;5053258;28;20412;-78
2024/04/06 09:01:51;;;;;;;9.33;2.20;;;;;;;;;;5052656;28;20551;-76
2024/04/06 09:04:18;;;;;;;4.27;2.37;;;;;;;;;;5052167;28;20416;-78
2024/04/06 09:06:44;;;;;;;9.33;2.23;;;;;;;;;;5052320;28;20432;-77
2024/04/06 09:09:10;;;;;;;5.10;2.10;;;;;;;;;;5051923;28;20421;-77
2024/04/06 09:11:40;;;;;;;3.50;2.30;;;;;;;;;;5052262;28;20447;-78
2024/04/06 09:14:06;;;;;;;9.43;2.80;;;;;;;;;;5052337;28;20424;-77
2024/04/06 09:16:35;;;;;;;6.70;2.63;;;;;;;;;;5052273;28;20510;-77
2024/04/06 09:19:02;;;;;;;12.63;3.83;;;;;;;;;;5049550;28;20427;-78
2024/04/06 09:21:28;;;;;;;6.63;4.23;;;;;;;;;;5053329;28;20432;-77
2024/04/06 09:23:54;;;;;;;5.40;3.23;;;;;;;;;;5053573;28;20946;-78
2024/04/06 09:26:21;;;;;;;8.10;2.70;;;;;;;;;;5055653;28;20412;-78
2024/04/06 09:28:48;;;;;;;10.50;3.53;;;;;;;;;;5050089;28;20427;-81
2024/04/06 09:31:18;;;;;;;4.43;2.50;;;;;;;;;;5066177;28;20432;-79
2024/04/06 09:33:45;;;;;;;11.90;3.00;;;;;;;;;;5066043;28;20416;-78
2024/04/06 09:36:13;;;;;;;8.00;3.43;;;;;;;;;;5061335;28;20420;-78
2024/04/06 09:38:39;;;;;;;4.57;2.60;;;;;;;;;;5059290;28;20420;-77
2024/04/06 09:41:06;;;;;;;8.10;2.60;;;;;;;;;;5060461;28;20424;-75
2024/04/06 09:43:32;;;;;;;9.53;3.23;;;;;;;;;;5056521;28;20412;-78
2024/04/06 09:45:58;;;;;;;7.03;2.50;;;;;;;;;;5053879;28;20416;-78
2024/04/06 09:48:25;;;;;;;5.03;2.60;;;;;;;;;;5052890;28;20451;-77
2024/04/06 09:50:51;;;;;;;3.83;2.30;;;;;;;;;;5055200;28;20431;-78
2024/04/06 09:53:18;;;;;;;5.50;2.77;;;;;;;;;;5051956;28;20507;-76
2024/04/06 09:55:45;;;;;;;6.33;2.77;;;;;;;;;;5051237;28;20420;-78
2024/04/06 09:58:12;;;;;;;4.33;2.57;;;;;;;;;;5050987;28;20471;-79
2024/04/06 10:00:38;;;;;;;5.00;2.50;;;;;;;;;;5046452;28;20792;-76
2024/04/06 10:03:05;;;;;;;4.90;2.40;;;;;;;;;;5038489;28;20499;-76
2024/04/06 10:05:38;;;;;;;7.43;2.20;;;;;;;;;;5050786;28;20452;-75
2024/04/06 10:08:04;;;;;;;5.50;3.40;;;;;;;;;;5050505;28;20423;-76
2024/04/06 10:10:33;;;;;;;6.03;2.43;;;;;;;;;;5050585;28;20444;-74
2024/04/06 10:12:59;;;;;;;6.63;3.27;;;;;;;;;;5050813;28;20950;-77
2024/04/06 10:15:28;;;;;;;7.53;3.20;;;;;;;;;;5050011;28;20424;-77
2024/04/06 10:17:54;;;;;;;5.93;2.50;;;;;;;;;;5048190;28;20476;-74
2024/04/06 10:20:24;;;;;;;8.87;2.57;;;;;;;;;;5042227;28;20428;-75
2024/04/06 10:22:52;;;;;;;8.83;2.40;;;;;;;;;;5048366;28;20780;-76
2024/04/06 10:25:18;;;;;;;4.47;2.20;;;;;;;;;;5042318;28;20531;-75
2024/04/06 10:27:44;;;;;;;3.07;1.83;;;;;;;;;;5051778;28;20507;-74
2024/04/06 10:30:11;;;;;;;3.50;1.97;;;;;;;;;;5053095;28;20419;-75
2024/04/06 10:32:37;;;;;;;3.27;2.00;;;;;;;;;;5054389;28;20900;-76
2024/04/06 10:35:03;;;;;;;4.23;1.97;;;;;;;;;;5064524;28;20416;-75
2024/04/06 10:37:30;;;;;;;6.80;2.20;;;;;;;;;;5063758;28;20471;-75
2024/04/06 10:39:56;;;;;;;5.30;3.23;;;;;;;;;;5059711;28;20416;-74
2024/04/06 10:42:26;;;;;;;5.93;1.70;;;;;;;;;;5062923;28;20494;-74
2024/04/06 10:44:52;;;;;;;2.30;1.70;;;;;;;;;;5060716;28;20477;-75
2024/04/06 10:47:18;;;;;;;1.80;1.50;;;;;;;;;;5059183;28;20424;-74
2024/04/06 10:49:48;;;;;;;2.80;1.43;;;;;;;;;;5053298;28;20911;-74
2024/04/06 10:52:15;;;;;;;3.47;1.40;;;;;;;;;;5043025;28;20448;-76
2024/04/06 10:54:41;;;;;;;5.93;1.43;;;;;;;;;;5044778;28;20904;-76
2024/04/06 10:57:07;;;;;;;1.90;1.47;;;;;;;;;;5043143;28;20821;-76
2024/04/06 10:59:33;;;;;;;3.20;2.10;;;;;;;;;;5045004;28;20427;-75
2024/04/06 11:01:59;;;;;;;4.13;1.73;;;;;;;;;;5048394;28;20965;-76
2024/04/06 11:04:25;;;;;;;4.40;1.90;;;;;;;;;;5040153;28;20416;-76
2024/04/06 11:06:51;;;;;;;2.80;2.10;;;;;;;;;;5050373;28;20766;-75
2024/04/06 11:09:17;;;;;;;3.70;1.90;;;;;;;;;;5050858;28;20423;-76
2024/04/06 11:11:43;;;;;;;4.90;2.10;;;;;;;;;;5050880;28;20428;-76
2024/04/06 11:14:10;;;;;;;7.20;2.30;;;;;;;;;;5044085;28;20416;-80
2024/04/06 11:16:40;;;;;;;3.07;2.30;;;;;;;;;;5152217;22;20473;-79
2024/04/06 11:19:08;;;;;;;3.37;2.20;;;;;;;;;;5054251;28;20519;-79
2024/04/06 11:21:34;;;;;;;3.60;1.60;;;;;;;;;;5051477;28;20421;-78
2024/04/06 11:24:00;;;;;;;5.13;2.03;;;;;;;;;;5052734;28;20468;-78
2024/04/06 11:26:26;;;;;;;3.10;1.93;;;;;;;;;;5052725;28;20496;-79
2024/04/06 11:28:52;;;;;;;4.63;2.80;;;;;;;;;;5051878;28;20578;-79
2024/04/06 11:31:21;;;;;;;4.60;2.37;;;;;;;;;;5037661;28;20931;-78
2024/04/06 11:33:47;;;;;;;5.93;3.30;;;;;;;;;;5040026;28;20427;-79
2024/04/06 11:36:13;;;;;;;2.53;2.10;;;;;;;;;;5040779;28;20485;-78
2024/04/06 11:38:39;;;;;;;3.60;2.10;;;;;;;;;;5039603;28;20472;-79
2024/04/06 11:41:05;;;;;;;3.93;2.00;;;;;;;;;;5038207;28;20485;-78
2024/04/06 11:43:32;;;;;;;3.20;2.50;;;;;;;;;;5046480;28;20413;-78
2024/04/06 11:45:58;;;;;;;4.40;2.50;;;;;;;;;;5040613;28;20792;-78
2024/04/06 11:48:24;;;;;;;5.33;2.50;;;;;;;;;;5034145;28;20421;-79
2024/04/06 11:50:49;;;;;;;7.03;3.77;;;;;;;;;;5040090;28;20417;-78
2024/04/06 11:53:16;;;;;;;9.90;4.93;;;;;;;;;;5038106;28;20468;-79
2024/04/06 11:55:42;;;;;;;5.73;2.50;;;;;;;;;;5040497;28;20441;-78
2024/04/06 11:58:08;;;;;;;6.27;3.70;;;;;;;;;;5038784;28;20456;-79
2024/04/06 12:00:34;;;;;;;9.60;4.70;;;;;;;;;;5041293;28;20420;-79
2024/04/06 12:03:00;;;;;;;6.87;3.80;;;;;;;;;;5040677;28;20420;-78
2024/04/06 12:05:26;;;;;;;7.07;3.10;;;;;;;;;;5037781;28;20501;-78
2024/04/06 12:07:52;;;;;;;13.00;6.60;;;;;;;;;;5040985;28;20459;-78
2024/04/06 12:10:19;;;;;;;7.90;3.77;;;;;;;;;;5040000;28;20445;-78
2024/04/06 12:12:45;;;;;;;7.97;4.43;;;;;;;;;;5042634;28;20429;-78
2024/04/06 12:15:13;;;;;;;5.60;3.53;;;;;;;;;;5038603;28;20421;-79
2024/04/06 12:17:39;;;;;;;2.97;1.70;;;;;;;;;;5035200;28;20483;-79
2024/04/06 12:20:06;;;;;;;4.87;2.17;;;;;;;;;;5040425;28;20499;-79
2024/04/06 12:22:32;;;;;;;1.77;1.37;;;;;;;;;;5040531;28;20930;-79
2024/04/06 12:24:58;;;;;;;6.80;1.73;;;;;;;;;;5039721;28;20448;-79
2024/04/06 12:27:24;;;;;;;3.80;1.77;;;;;;;;;;5047055;28;20441;-79
2024/04/06 12:29:50;;;;;;;3.50;1.70;;;;;;;;;;5047264;28;20449;-78
2024/04/06 12:32:17;;;;;;;2.60;1.50;;;;;;;;;;5046531;28;20420;-78
2024/04/06 12:34:43;;;;;;;2.10;1.47;;;;;;;;;;5044992;28;20429;-79
2024/04/06 12:37:14;;;;;;;3.93;1.50;;;;;;;;;;5043852;28;20536;-78
2024/04/06 12:39:40;;;;;;;4.10;1.17;;;;;;;;;;5041299;28;20421;-79
2024/04/06 12:42:07;;;;;;;2.93;1.60;;;;;;;;;;5039988;28;20428;-79
2024/04/06 12:44:33;;;;;;;1.50;1.30;;;;;;;;;;5038199;28;20950;-79
2024/04/06 12:46:59;;;;;;;2.53;1.50;;;;;;;;;;5039211;28;20479;-78
2024/04/06 12:49:29;;;;;;;2.17;1.27;;;;;;;;;;5038953;28;20982;-79
2024/04/06 12:51:55;;;;;;;6.13;1.77;;;;;;;;;;5038562;28;20483;-78
2024/04/06 12:54:21;;;;;;;2.63;1.53;;;;;;;;;;5038667;28;20424;-79
2024/04/06 12:59:32;;;;;;;3.10;1.60;;;;;;;;;;5038172;28;20415;-78
2024/04/06 13:01:58;;;;;;;2.40;1.50;;;;;;;;;;5039537;28;20987;-78
2024/04/06 13:04:24;;;;;;;1.90;1.70;;;;;;;;;;5037527;28;20424;-78
2024/04/06 13:06:50;;;;;;;3.40;1.90;;;;;;;;;;5038733;28;20421;-79
2024/04/06 13:09:16;;;;;;;1.67;1.30;;;;;;;;;;5038599;28;20485;-78
2024/04/06 13:11:43;;;;;;;11.80;1.40;;;;;;;;;;5038527;28;20500;-78
2024/04/06 13:14:09;;;;;;;2.60;1.60;;;;;;;;;;5036602;28;20417;-78
2024/04/06 13:16:35;;;;;;;1.77;1.50;;;;;;;;;;5033248;28;20959;-78
2024/04/06 13:19:02;;;;;;;3.80;2.30;;;;;;;;;;5039621;28;20428;-78
2024/04/06 13:21:28;;;;;;;2.67;1.30;;;;;;;;;;5033354;28;20417;-78
2024/04/06 13:23:54;;;;;;;2.47;1.40;;;;;;;;;;5033201;28;20496;-78
2024/04/06 13:26:20;;;;;;;3.03;1.50;;;;;;;;;;5032187;28;20425;-78
2024/04/06 13:28:46;;;;;;;3.20;1.60;;;;;;;;;;5032995;28;20433;-78
2024/04/06 13:31:12;;;;;;;2.10;1.40;;;;;;;;;;5033918;28;20449;-78
2024/04/06 13:33:38;;;;;;;4.10;1.50;;;;;;;;;;5032695;28;20591;-78
2024/04/06 13:36:04;;;;;;;2.00;1.57;;;;;;;;;;5032844;28;20429;-78
2024/04/06 13:38:30;;;;;;;3.20;2.00;;;;;;;;;;5033043;28;20561;-78
2024/04/06 13:40:57;;;;;;;2.90;1.90;;;;;;;;;;5032994;28;20418;-77
2024/04/06 13:43:23;;;;;;;5.03;1.90;;;;;;;;;;5037412;28;20409;-78
2024/04/06 13:45:50;;;;;;;3.00;1.70;;;;;;;;;;5037495;28;20495;-78
2024/04/06 13:48:17;;;;;;;5.23;1.70;;;;;;;;;;5038233;28;20470;-78
2024/04/06 13:50:51;;;;;;;2.57;1.50;;;;;;;;;;5039671;28;20409;-78
2024/04/06 13:53:17;;;;;;;3.40;1.97;;;;;;;;;;5037466;28;20417;-78
2024/04/06 13:55:43;;;;;;;3.30;1.70;;;;;;;;;;5037907;28;20869;-79
2024/04/06 13:58:09;;;;;;;5.27;1.73;;;;;;;;;;5038637;28;20468;-78
2024/04/06 14:00:36;;;;;;;6.57;3.00;;;;;;;;;;5037479;28;20951;-78
2024/04/06 14:03:02;;;;;;;8.90;2.67;;;;;;;;;;5038570;28;20868;-78
2024/04/06 14:05:29;;;;;;;2.53;1.47;;;;;;;;;;5037881;28;20437;-78
2024/04/06 14:07:55;;;;;;;9.03;2.30;;;;;;;;;;5035215;28;20491;-78
2024/04/06 14:10:21;;;;;;;4.83;2.03;;;;;;;;;;5038905;28;20496;-78
2024/04/06 14:12:47;;;;;;;4.47;1.80;;;;;;;;;;5038772;28;20445;-78
2024/04/06 14:15:13;;;;;;;3.00;1.80;;;;;;;;;;5038972;28;20421;-79
2024/04/06 14:17:39;;;;;;;2.10;1.57;;;;;;;;;;5040412;28;20472;-78
2024/04/06 14:20:08;;;;;;;2.10;1.57;;;;;;;;;;5026171;28;20429;-77
2024/04/06 14:22:34;;;;;;;3.10;2.07;;;;;;;;;;5031952;28;20421;-77
2024/04/06 14:25:01;;;;;;;4.30;2.10;;;;;;;;;;5031264;28;20889;-77
2024/04/06 14:27:27;;;;;;;3.13;1.60;;;;;;;;;;5029972;28;20449;-78
2024/04/06 14:30:01;;;;;;;3.50;1.67;;;;;;;;;;5030552;28;20429;-77
2024/04/06 14:32:26;;;;;;;2.50;1.50;;;;;;;;;;5041821;28;20424;-77
2024/04/06 14:34:54;;;;;;;3.20;2.00;;;;;;;;;;5025443;28;20409;-77
2024/04/06 14:37:20;;;;;;;3.53;1.57;;;;;;;;;;5032005;28;20495;-77
2024/04/06 14:39:46;;;;;;;3.17;1.43;;;;;;;;;;5031313;28;20416;-77
2024/04/06 14:42:12;;;;;;;4.43;2.40;;;;;;;;;;5031326;28;20425;-77
2024/04/06 14:44:38;;;;;;;1.60;1.40;;;;;;;;;;5031425;28;20470;-77
2024/04/06 14:47:05;;;;;;;6.10;1.77;;;;;;;;;;5031403;28;20538;-78
2024/04/06 14:49:31;;;;;;;2.67;2.10;;;;;;;;;;5031367;28;20417;-78
2024/04/06 14:51:56;;;;;;;3.10;1.60;;;;;;;;;;5031438;28;20409;-78
2024/04/06 14:54:22;;;;;;;2.17;1.73;;;;;;;;;;5031229;28;20773;-77
2024/04/06 14:56:48;;;;;;;3.30;2.13;;;;;;;;;;5030080;28;20223;-77
2024/04/06 14:59:14;;;;;;;4.93;1.90;;;;;;;;;;5031236;28;20413;-78
2024/04/06 15:01:40;;;;;;;3.97;1.73;;;;;;;;;;5030415;28;20831;-78
2024/04/06 15:04:06;;;;;;;4.17;1.60;;;;;;;;;;5030988;28;20413;-78
2024/04/06 15:06:32;;;;;;;1.97;1.50;;;;;;;;;;5032993;28;20468;-78
2024/04/06 15:08:58;;;;;;;2.10;1.30;;;;;;;;;;5034593;28;20428;-77
2024/04/06 15:11:24;;;;;;;3.47;1.60;;;;;;;;;;5034598;28;20416;-78
2024/04/06 15:13:50;;;;;;;3.30;1.60;;;;;;;;;;5035209;28;20456;-77
2024/04/06 15:16:16;;;;;;;2.50;1.60;;;;;;;;;;5033121;28;20487;-77
2024/04/06 15:18:42;;;;;;;3.63;1.63;;;;;;;;;;5034910;28;20456;-77
2024/04/06 15:21:08;;;;;;;4.67;1.90;;;;;;;;;;5029374;28;20418;-78
2024/04/06 15:23:34;;;;;;;3.27;2.30;;;;;;;;;;5031816;28;20786;-78
2024/04/06 15:26:00;;;;;;;2.73;2.10;;;;;;;;;;5032992;28;20542;-78
2024/04/06 15:28:26;;;;;;;2.53;1.93;;;;;;;;;;5035142;28;20444;-78
2024/04/06 15:30:52;;;;;;;2.50;1.70;;;;;;;;;;5034538;28;20424;-78
2024/04/06 15:33:18;;;;;;;3.17;2.10;;;;;;;;;;5037399;28;20417;-77
2024/04/06 15:35:44;;;;;;;2.30;1.60;;;;;;;;;;5039469;28;20537;-78
2024/04/06 15:38:10;;;;;;;2.93;1.87;;;;;;;;;;5037780;28;20518;-79
2024/04/06 15:40:37;;;;;;;4.23;2.07;;;;;;;;;;5036453;28;20178;-79
2024/04/06 15:43:03;;;;;;;4.40;3.23;;;;;;;;;;5034382;28;20408;-79
2024/04/06 15:45:29;;;;;;;5.70;2.23;;;;;;;;;;5033724;28;20488;-78
2024/04/06 15:47:56;;;;;;;4.40;2.00;;;;;;;;;;5034109;28;20428;-78
2024/04/06 15:50:22;;;;;;;9.23;2.90;;;;;;;;;;5033723;28;20512;-78
2024/04/06 15:52:48;;;;;;;7.57;4.43;;;;;;;;;;5033687;28;20947;-78
2024/04/06 15:55:14;;;;;;;7.60;3.90;;;;;;;;;;5036141;28;20883;-81
2024/04/06 15:57:40;;;;;;;7.13;3.77;;;;;;;;;;5037416;28;20464;-78
2024/04/06 16:00:06;;;;;;;6.70;3.00;;;;;;;;;;5033889;28;20416;-78
2024/04/06 16:02:33;;;;;;;9.90;5.80;;;;;;;;;;5033608;28;20939;-78
2024/04/06 16:04:59;;;;;;;6.87;3.23;;;;;;;;;;5031830;28;20414;-78
2024/04/06 16:07:25;;;;;;;6.00;3.07;;;;;;;;;;5033016;28;20444;-77
2024/04/06 16:09:51;;;;;;;3.43;2.80;;;;;;;;;;5033003;28;20420;-78
2024/04/06 16:12:17;;;;;;;3.00;2.20;;;;;;;;;;5033545;28;20461;-78
2024/04/06 16:14:43;;;;;;;3.80;2.43;;;;;;;;;;5033075;28;20428;-78
2024/04/06 16:17:09;;;;;;;5.73;2.40;;;;;;;;;;5031827;28;20563;-77
2024/04/06 16:19:35;;;;;;;4.67;2.53;;;;;;;;;;5033174;28;20781;-78
2024/04/06 16:22:03;;;;;;;7.40;3.43;;;;;;;;;;5033476;28;20424;-78
2024/04/06 16:24:29;;;;;;;6.70;3.10;;;;;;;;;;5031821;28;20439;-78
2024/04/06 16:26:55;;;;;;;4.00;2.43;;;;;;;;;;5032999;28;20465;-78
2024/04/06 16:29:21;;;;;;;6.30;2.83;;;;;;;;;;5032864;28;20944;-78
2024/04/06 16:31:49;;;;;;;10.87;4.23;;;;;;;;;;5033251;28;20766;-78
2024/04/06 16:34:15;;;;;;;11.00;5.10;;;;;;;;;;5033502;28;20417;-79
2024/04/06 16:36:41;;;;;;;8.93;4.63;;;;;;;;;;5033524;28;20873;-78
2024/04/06 16:39:07;;;;;;;8.93;4.30;;;;;;;;;;5039602;28;20535;-78
2024/04/06 16:41:33;;;;;;;8.60;3.07;;;;;;;;;;5035835;28;20421;-79
2024/04/06 16:43:59;;;;;;;9.60;3.77;;;;;;;;;;5032739;28;20410;-78
2024/04/06 16:46:25;;;;;;;9.17;3.40;;;;;;;;;;5033152;28;20449;-79
2024/04/06 16:48:51;;;;;;;4.30;2.40;;;;;;;;;;5033650;28;20413;-78
2024/04/06 16:51:17;;;;;;;11.13;3.40;;;;;;;;;;5033689;28;20432;-78
2024/04/06 16:53:43;;;;;;;5.30;3.23;;;;;;;;;;5034281;28;20421;-78
2024/04/06 16:56:09;;;;;;;6.10;3.30;;;;;;;;;;5033482;28;20441;-78
2024/04/06 16:58:35;;;;;;;6.07;2.40;;;;;;;;;;5033985;28;20990;-78
2024/04/06 17:01:01;;;;;;;4.50;2.87;;;;;;;;;;5027933;28;20413;-78
2024/04/06 17:03:29;;;;;;;6.70;3.80;;;;;;;;;;5033487;28;20413;-78
2024/04/06 17:05:55;;;;;;;10.20;4.20;;;;;;;;;;5032523;28;20441;-79
2024/04/06 17:08:21;;;;;;;5.40;2.97;;;;;;;;;;5033938;28;20420;-78
2024/04/06 17:10:47;;;;;;;5.97;3.50;;;;;;;;;;5034133;28;20904;-79
2024/04/06 17:13:13;;;;;;;5.70;3.33;;;;;;;;;;5033696;28;20414;-78
2024/04/06 17:15:39;;;;;;;5.20;3.93;;;;;;;;;;5054639;22;20854;-74
2024/04/06 17:18:05;;;;;;;4.47;2.77;;;;;;;;;;5013663;28;20498;-76
2024/04/06 17:20:31;;;;;;;4.93;3.00;;;;;;;;;;5012881;28;20799;-75
2024/04/06 17:22:57;;;;;;;6.37;3.03;;;;;;;;;;5004542;28;20785;-76
2024/04/06 17:25:23;;;;;;;3.27;2.37;;;;;;;;;;5013085;28;20765;-75
2024/04/06 17:27:49;;;;;;;4.20;2.77;;;;;;;;;;5013126;28;20426;-74
2024/04/06 17:30:15;;;;;;;5.97;2.93;;;;;;;;;;5028279;28;20430;-75
2024/04/06 17:32:41;;;;;;;5.27;2.60;;;;;;;;;;5005391;28;20971;-76
2024/04/06 17:35:09;;;;;;;11.73;4.10;;;;;;;;;;5008356;28;20778;-76
2024/04/06 17:37:35;;;;;;;7.50;3.60;;;;;;;;;;5008591;28;20620;-77
2024/04/06 17:40:03;;;;;;;13.00;8.90;;;;;;;;;;5012396;28;20445;-76
2024/04/06 17:42:29;;;;;;;15.00;8.20;;;;;;;;;;5012510;28;20414;-76
2024/04/06 17:44:55;;;;;;;9.20;5.50;;;;;;;;;;5011888;28;20414;-76
2024/04/06 17:47:20;;;;;;;13.93;6.80;;;;;;;;;;5012272;28;20443;-76
2024/04/06 17:49:47;;;;;;;11.40;6.17;;;;;;;;;;5027383;28;20449;-76
2024/04/06 17:52:13;;;;;;;7.30;3.93;;;;;;;;;;5012220;28;20461;-76
2024/04/06 17:54:39;;;;;;;8.90;4.67;;;;;;;;;;5008547;28;20429;-75
2024/04/06 17:57:05;;;;;;;10.60;4.80;;;;;;;;;;5009690;28;20473;-75
2024/04/06 17:59:31;;;;;;;10.43;5.27;;;;;;;;;;5012193;28;20507;-75
2024/04/06 18:01:57;;;;;;;10.40;5.00;;;;;;;;;;5012042;28;20928;-75
2024/04/06 18:04:23;;;;;;;14.40;4.90;;;;;;;;;;5003389;28;20458;-75
2024/04/06 18:06:50;;;;;;;10.90;5.13;;;;;;;;;;5010887;28;20458;-75
2024/04/06 18:09:16;;;;;;;9.90;4.43;;;;;;;;;;5005708;28;20771;-75
2024/04/06 18:11:43;;;;;;;11.60;4.87;;;;;;;;;;5011508;28;20465;-76
2024/04/06 18:14:09;;;;;;;10.80;5.33;;;;;;;;;;5003663;28;20418;-75
2024/04/06 18:16:35;;;;;;;13.67;4.67;;;;;;;;;;5011507;28;20831;-75
2024/04/06 18:19:01;;;;;;;11.30;5.70;;;;;;;;;;5011811;28;20508;-75
2024/04/06 18:21:27;;;;;;;16.33;6.03;;;;;;;;;;5012247;28;20983;-75
2024/04/06 18:23:53;;;;;;;10.80;4.73;;;;;;;;;;5003588;28;20927;-75
2024/04/06 18:26:19;;;;;;;8.10;5.10;;;;;;;;;;5011103;28;20505;-74
2024/04/06 18:28:45;;;;;;;11.00;5.40;;;;;;;;;;4995459;28;20419;-75
2024/04/06 18:31:11;;;;;;;15.27;5.23;;;;;;;;;;5003604;28;20413;-76
2024/04/06 18:33:38;;;;;;;10.93;5.43;;;;;;;;;;5010896;28;20422;-76
2024/04/06 18:36:04;;;;;;;8.30;5.67;;;;;;;;;;5010730;28;20801;-75
2024/04/06 18:38:30;;;;;;;12.50;5.00;;;;;;;;;;5026731;28;20457;-75
2024/04/06 18:40:56;;;;;;;9.90;5.50;;;;;;;;;;5016328;28;20473;-74
2024/04/06 18:43:22;;;;;;;23.47;6.20;;;;;;;;;;5010534;28;20414;-75
2024/04/06 18:45:48;;;;;;;13.93;5.23;;;;;;;;;;5017535;28;20469;-75
2024/04/06 18:48:14;;;;;;;11.50;6.30;;;;;;;;;;5018128;28;20448;-75
2024/04/06 18:50:40;;;;;;;10.70;5.83;;;;;;;;;;5009989;28;20422;-75
2024/04/06 18:53:07;;;;;;;10.27;5.07;;;;;;;;;;5015219;28;20419;-75
2024/04/06 18:55:33;;;;;;;8.63;4.47;;;;;;;;;;5015741;28;20460;-75
2024/04/06 18:57:59;;;;;;;9.50;4.90;;;;;;;;;;5016919;28;20458;-75
2024/04/06 19:00:25;;;;;;;7.33;4.03;;;;;;;;;;5018147;28;20474;-75
2024/04/06 19:02:52;;;;;;;8.07;4.70;;;;;;;;;;5017986;28;20421;-76
2024/04/06 19:05:18;;;;;;;13.63;4.97;;;;;;;;;;5017267;28;20459;-75
2024/04/06 19:07:45;;;;;;;11.63;4.70;;;;;;;;;;5017686;28;20719;-76
2024/04/06 19:10:11;;;;;;;7.73;4.03;;;;;;;;;;5010235;28;20418;-75
2024/04/06 19:12:38;;;;;;;15.03;6.30;;;;;;;;;;5017834;28;20417;-76
2024/04/06 19:15:04;;;;;;;11.73;5.80;;;;;;;;;;5017434;28;20807;-75
2024/04/06 19:17:30;;;;;;;9.23;5.10;;;;;;;;;;5017502;28;20480;-75
2024/04/06 19:19:56;;;;;;;11.63;6.00;;;;;;;;;;5017802;28;20497;-75
2024/04/06 19:22:22;;;;;;;10.57;5.87;;;;;;;;;;5009642;28;20417;-74
2024/04/06 19:24:48;;;;;;;13.57;4.60;;;;;;;;;;5032385;28;20418;-76
2024/04/06 19:27:14;;;;;;;11.03;4.90;;;;;;;;;;5014018;28;20442;-75
2024/04/06 19:29:40;;;;;;;7.43;4.67;;;;;;;;;;5017820;28;20428;-74
2024/04/06 19:32:06;;;;;;;7.57;4.60;;;;;;;;;;5014980;28;20415;-76
2024/04/06 19:34:32;;;;;;;7.43;4.67;;;;;;;;;;5012092;28;20496;-75
2024/04/06 19:36:58;;;;;;;8.80;4.90;;;;;;;;;;5017416;28;20568;-75
2024/04/06 19:39:25;;;;;;;8.50;5.03;;;;;;;;;;5032929;28;20426;-75